Time;durP1;ratioP1;P1;durP2;ratioP2;P2;SDS_P1;SDS_P2;PMS_P1;PMS_P2;Temp;Humidity;BMP_temperature;BMP_pressure;BME280_temperature;BME280_humidity;BME280_pressure;Samples;Min_cycle;Max_cycle;Signal;HPM_P1;HPM_P2
2022/07/19 00:02:06;;;;;;;5.03;2.15;;;;;;;23.04;50.43;95250.84;5110873;28;20177;-86
2022/07/19 00:04:35;;;;;;;4.10;2.60;;;;;;;22.99;50.65;95240.22;5114331;28;20217;-87
2022/07/19 00:07:03;;;;;;;2.58;2.08;;;;;;;23.12;51.01;95265.50;5104655;28;20182;-87
2022/07/19 00:09:40;;;;;;;6.22;2.35;;;;;;;23.17;50.82;95270.91;5100696;28;20610;-88
2022/07/19 00:12:07;;;;;;;3.38;2.05;;;;;;;22.93;50.98;95242.84;5096685;28;20641;-89
2022/07/19 00:14:35;;;;;;;3.35;2.20;;;;;;;23.15;51.27;95274.75;5094029;28;20206;-90
2022/07/19 00:17:02;;;;;;;4.93;2.38;;;;;;;23.13;51.32;95282.75;5094580;28;20277;-89
2022/07/19 00:19:29;;;;;;;2.75;2.00;;;;;;;22.99;51.37;95252.47;5094824;28;20204;-88
2022/07/19 00:21:56;;;;;;;2.28;1.75;;;;;;;22.03;51.58;95104.94;5095872;28;20194;-88
2022/07/19 00:24:24;;;;;;;3.65;2.15;;;;;;;22.85;51.53;95228.16;5094059;28;20756;-87
2022/07/19 00:26:53;;;;;;;2.70;2.50;;;;;;;23.13;51.68;95276.72;5094063;28;20189;-87
2022/07/19 00:29:20;;;;;;;4.20;2.05;;;;;;;23.11;51.69;95278.75;5094815;28;20194;-87
2022/07/19 00:31:47;;;;;;;2.83;2.30;;;;;;;22.92;51.66;95247.22;5112317;28;20194;-85
2022/07/19 00:34:13;;;;;;;2.95;2.55;;;;;;;21.99;51.61;95108.94;5115214;28;20194;-87
2022/07/19 00:36:40;;;;;;;3.67;2.45;;;;;;;23.04;51.59;95276.13;5098900;28;20219;-86
2022/07/19 00:39:07;;;;;;;5.57;2.50;;;;;;;22.60;51.76;95207.06;5102045;28;20189;-84
2022/07/19 00:41:40;;;;;;;3.30;2.13;;;;;;;22.99;51.81;95274.13;5113684;28;20182;-85
2022/07/19 00:44:09;;;;;;;3.38;2.53;;;;;;;22.98;51.99;95271.72;5111356;28;20220;-87
2022/07/19 00:46:36;;;;;;;6.22;2.25;;;;;;;22.32;51.66;95177.75;5106266;28;20221;-85
2022/07/19 00:49:03;;;;;;;2.53;2.33;;;;;;;22.73;52.21;95243.59;5106424;28;20165;-86
2022/07/19 00:51:34;;;;;;;2.38;2.17;;;;;;;22.94;52.37;95283.56;5112831;28;20178;-83
2022/07/19 00:54:02;;;;;;;2.40;2.17;;;;;;;22.92;52.43;95269.91;5110325;28;20235;-89
2022/07/19 00:56:32;;;;;;;2.30;2.00;;;;;;;22.52;52.70;95218.50;5114657;28;20199;-84
2022/07/19 00:59:01;;;;;;;2.90;2.35;;;;;;;21.72;52.71;95087.28;5096594;28;20189;-87
2022/07/19 01:01:29;;;;;;;5.38;2.22;;;;;;;22.86;52.68;95270.69;5094251;28;20189;-90
2022/07/19 01:03:57;;;;;;;2.72;2.50;;;;;;;22.82;52.96;95262.44;5093779;28;20217;-87
2022/07/19 01:06:25;;;;;;;2.95;1.92;;;;;;;22.83;53.07;95269.25;5095707;28;20200;-87
2022/07/19 01:09:05;;;;;;;5.22;2.30;;;;;;;22.68;52.73;95240.78;5094013;28;20194;-86
2022/07/19 01:11:32;;;;;;;2.13;1.92;;;;;;;22.78;53.03;95258.63;5095643;28;20315;-91
2022/07/19 01:13:59;;;;;;;3.72;2.22;;;;;;;22.75;53.05;95259.03;5094842;28;20196;-89
2022/07/19 01:16:26;;;;;;;6.05;2.17;;;;;;;22.73;53.12;95264.44;5096369;28;20594;-89
2022/07/19 01:18:54;;;;;;;4.38;2.08;;;;;;;22.73;53.17;95269.66;5094965;28;20255;-90
2022/07/19 01:21:24;;;;;;;5.47;2.65;;;;;;;22.70;53.27;95258.81;5094069;28;20205;-89
2022/07/19 01:23:52;;;;;;;2.92;2.47;;;;;;;22.66;53.49;95261.03;5093894;28;20210;-90
2022/07/19 01:26:19;;;;;;;6.57;2.20;;;;;;;22.46;53.58;95234.94;5092647;28;20215;-90
2022/07/19 01:28:46;;;;;;;4.40;2.05;;;;;;;22.60;53.85;95254.00;5100616;28;20185;-90
2022/07/19 01:31:13;;;;;;;4.25;2.30;;;;;;;22.60;53.79;95248.00;5098132;28;20197;-88
2022/07/19 01:33:41;;;;;;;5.40;1.80;;;;;;;22.16;53.88;95195.38;5094175;28;20590;-86
2022/07/19 01:36:09;;;;;;;3.17;2.63;;;;;;;21.90;54.00;95154.41;5092364;28;20197;-85
2022/07/19 01:38:38;;;;;;;3.60;2.17;;;;;;;22.54;54.14;95254.81;5092064;28;20193;-84
2022/07/19 01:41:06;;;;;;;2.15;1.80;;;;;;;21.72;54.02;95130.72;5091960;28;20189;-84
2022/07/19 01:43:33;;;;;;;4.50;1.80;;;;;;;22.49;54.18;95244.94;5092202;28;20205;-86
2022/07/19 01:46:01;;;;;;;4.97;2.05;;;;;;;22.49;54.23;95254.56;5091517;28;20252;-86
2022/07/19 01:48:30;;;;;;;3.25;2.00;;;;;;;22.20;54.19;95206.22;5092248;28;20641;-86
2022/07/19 01:50:58;;;;;;;2.15;2.00;;;;;;;22.25;54.34;95216.84;5091658;28;20540;-85
2022/07/19 01:53:25;;;;;;;2.45;2.10;;;;;;;22.43;54.50;95250.16;5091547;28;20198;-87
2022/07/19 01:55:53;;;;;;;3.20;2.00;;;;;;;22.13;54.41;95202.78;5090796;28;20201;-85
2022/07/19 01:58:20;;;;;;;2.45;1.83;;;;;;;22.27;54.53;95233.88;5092002;28;20288;-85
2022/07/19 02:00:47;;;;;;;4.85;2.03;;;;;;;22.38;54.69;95261.19;5091681;28;20194;-85
2022/07/19 02:03:14;;;;;;;2.22;2.10;;;;;;;22.37;54.79;95253.56;5091845;28;20570;-86
2022/07/19 02:05:41;;;;;;;2.15;1.95;;;;;;;22.35;54.94;95250.34;5091301;28;20216;-84
2022/07/19 02:08:08;;;;;;;2.85;1.92;;;;;;;22.33;54.90;95253.16;5091203;28;20196;-89
2022/07/19 02:10:34;;;;;;;2.92;2.15;;;;;;;21.84;54.85;95172.59;5091567;28;20208;-89
2022/07/19 02:13:03;;;;;;;5.75;1.95;;;;;;;22.30;54.78;95253.53;5091718;28;20197;-88
2022/07/19 02:15:30;;;;;;;3.10;2.22;;;;;;;22.27;55.11;95257.31;5091949;28;20192;-87
2022/07/19 02:17:57;;;;;;;3.67;2.25;;;;;;;22.27;55.13;95261.72;5091560;28;20201;-87
2022/07/19 02:20:24;;;;;;;4.07;1.92;;;;;;;22.24;55.19;95254.34;5092130;28;20197;-89
2022/07/19 02:22:51;;;;;;;4.40;2.20;;;;;;;22.23;55.23;95257.91;5091300;28;20641;-88
2022/07/19 02:25:19;;;;;;;3.80;2.05;;;;;;;22.22;55.27;95262.31;5091877;28;20229;-87
2022/07/19 02:27:45;;;;;;;4.50;1.98;;;;;;;21.99;55.29;95233.97;5092252;28;20189;-88
2022/07/19 02:30:16;;;;;;;1.90;1.80;;;;;;;22.19;55.41;95265.34;5091681;28;20629;-84
2022/07/19 02:32:42;;;;;;;4.25;2.22;;;;;;;21.37;55.69;95132.56;5091444;28;20584;-84
2022/07/19 02:35:11;;;;;;;3.58;1.98;;;;;;;22.02;55.76;95244.00;5091316;28;20659;-84
2022/07/19 02:37:39;;;;;;;2.63;2.00;;;;;;;22.04;55.49;95251.63;5094443;28;20269;-84
2022/07/19 02:40:07;;;;;;;3.53;2.00;;;;;;;22.16;55.59;95270.94;5095130;28;20194;-85
2022/07/19 02:42:34;;;;;;;2.00;1.83;;;;;;;22.15;55.46;95265.91;5094939;28;20190;-83
2022/07/19 02:45:01;;;;;;;2.10;1.65;;;;;;;22.15;55.44;95269.34;5094765;28;20232;-83
2022/07/19 02:47:29;;;;;;;3.58;1.85;;;;;;;22.17;55.24;95272.53;5095143;28;20317;-83
2022/07/19 02:49:56;;;;;;;1.90;1.80;;;;;;;22.17;55.28;95279.56;5095068;28;20182;-85
2022/07/19 02:52:23;;;;;;;8.57;2.00;;;;;;;22.14;55.32;95288.56;5095631;28;20201;-83
2022/07/19 02:54:50;;;;;;;2.83;2.35;;;;;;;21.71;55.67;95231.44;5094631;28;20224;-84
2022/07/19 02:57:18;;;;;;;2.60;2.40;;;;;;;22.08;55.55;95291.91;5095040;28;20185;-83
2022/07/19 02:59:45;;;;;;;4.60;2.72;;;;;;;22.07;55.56;95289.50;5095233;28;20189;-84
2022/07/19 03:02:12;;;;;;;4.47;2.78;;;;;;;22.08;55.39;95297.13;5095047;28;20200;-83
2022/07/19 03:04:40;;;;;;;5.95;2.80;;;;;;;22.10;55.38;95289.09;5094557;28;20611;-84
2022/07/19 03:07:07;;;;;;;2.95;2.60;;;;;;;22.10;55.16;95295.13;5095898;28;20665;-87
2022/07/19 03:09:34;;;;;;;3.23;2.80;;;;;;;22.09;55.24;95295.31;5103048;28;20186;-84
2022/07/19 03:12:01;;;;;;;4.45;2.65;;;;;;;21.56;55.35;95209.16;5116093;28;20193;-87
2022/07/19 03:14:28;;;;;;;4.78;2.65;;;;;;;22.09;55.32;95295.31;5098412;28;20718;-87
2022/07/19 03:16:55;;;;;;;2.78;2.58;;;;;;;20.99;55.43;95122.56;5102978;28;20212;-88
2022/07/19 03:19:22;;;;;;;4.63;2.42;;;;;;;22.08;55.52;95294.50;5100786;28;20227;-86
2022/07/19 03:21:50;;;;;;;3.90;2.85;;;;;;;21.94;55.69;95274.63;5103703;28;20194;-88
2022/07/19 03:24:17;;;;;;;3.13;2.80;;;;;;;21.71;55.58;95243.66;5100207;28;20189;-86
2022/07/19 03:26:45;;;;;;;4.85;2.78;;;;;;;22.10;55.51;95302.94;5095616;28;20186;-87
2022/07/19 03:29:12;;;;;;;3.97;2.80;;;;;;;22.10;55.51;95310.75;5096515;28;20185;-88
2022/07/19 03:31:38;;;;;;;7.27;2.77;;;;;;;22.09;55.85;95303.13;5095797;28;20194;-88
2022/07/19 03:34:08;;;;;;;5.70;3.23;;;;;;;22.12;55.53;95306.19;5095325;28;20196;-88
2022/07/19 03:36:35;;;;;;;4.07;2.78;;;;;;;22.08;55.70;95302.34;5094476;28;20231;-89
2022/07/19 03:39:05;;;;;;;4.00;2.45;;;;;;;22.15;55.48;95311.03;5094508;28;20197;-88
2022/07/19 03:41:32;;;;;;;6.43;2.25;;;;;;;22.16;55.61;95309.22;5093583;28;20289;-88
2022/07/19 03:43:59;;;;;;;3.53;2.33;;;;;;;22.15;55.62;95305.81;5095012;28;20630;-87
2022/07/19 03:46:28;;;;;;;2.08;1.95;;;;;;;22.15;55.55;95311.03;5094889;28;20229;-88
2022/07/19 03:48:55;;;;;;;2.53;2.10;;;;;;;22.12;55.62;95310.56;5093211;28;20193;-89
2022/07/19 03:51:22;;;;;;;5.05;3.05;;;;;;;22.09;56.08;95319.56;5094047;28;20186;-86
2022/07/19 03:53:49;;;;;;;5.00;2.90;;;;;;;22.13;55.94;95325.22;5093811;28;20208;-87
2022/07/19 03:56:20;;;;;;;4.43;3.10;;;;;;;21.87;55.78;95264.16;5094155;28;20182;-87
2022/07/19 03:58:48;;;;;;;3.13;2.78;;;;;;;22.19;55.62;95324.44;5092183;28;20197;-87
2022/07/19 04:01:15;;;;;;;9.88;3.88;;;;;;;21.90;55.75;95284.63;5094170;28;20246;-87
2022/07/19 04:03:43;;;;;;;7.25;3.22;;;;;;;22.13;55.60;95318.22;5094152;28;20580;-88
2022/07/19 04:06:12;;;;;;;2.70;2.50;;;;;;;21.41;55.73;95201.44;5093834;28;20221;-88
2022/07/19 04:08:39;;;;;;;3.63;2.85;;;;;;;22.01;55.68;95296.28;5093927;28;20184;-87
2022/07/19 04:11:06;;;;;;;4.18;2.70;;;;;;;22.24;55.69;95324.69;5092955;28;20565;-85
2022/07/19 04:13:39;;;;;;;4.47;2.55;;;;;;;22.34;55.54;95329.53;5092695;28;20194;-87
2022/07/19 04:16:09;;;;;;;2.90;2.63;;;;;;;22.19;55.23;95299.22;5093425;28;20193;-91
2022/07/19 04:18:38;;;;;;;5.03;2.70;;;;;;;22.43;55.33;95336.19;5096267;28;20193;-88
2022/07/19 04:21:08;;;;;;;5.80;2.80;;;;;;;22.47;55.41;95337.41;5093471;28;20189;-89
2022/07/19 04:23:35;;;;;;;3.25;2.17;;;;;;;22.17;55.53;95298.59;5093166;28;20652;-90
2022/07/19 04:26:05;;;;;;;3.10;2.17;;;;;;;22.12;55.33;95285.34;5098418;28;20623;-89
2022/07/19 04:28:32;;;;;;;2.77;2.57;;;;;;;22.12;55.17;95266.28;5096021;28;20189;-89
2022/07/19 04:31:00;;;;;;;4.13;2.65;;;;;;;22.58;55.25;95336.81;5093103;28;20185;-85
2022/07/19 04:33:27;;;;;;;3.38;2.60;;;;;;;21.01;55.26;95084.97;5092610;28;20186;-85
2022/07/19 04:35:54;;;;;;;5.53;2.70;;;;;;;21.79;55.03;95191.41;5091893;28;20299;-85
2022/07/19 04:38:23;;;;;;;5.25;2.67;;;;;;;22.79;54.89;95334.06;5092064;28;20204;-84
2022/07/19 04:40:50;;;;;;;3.58;2.55;;;;;;;22.87;54.94;95340.91;5092530;28;20190;-84
2022/07/19 04:43:20;;;;;;;4.30;2.30;;;;;;;22.92;54.80;95343.75;5092601;28;20189;-85
2022/07/19 04:45:50;;;;;;;3.97;2.90;;;;;;;22.99;54.51;95344.56;5092164;28;20242;-84
2022/07/19 04:48:20;;;;;;;3.70;2.65;;;;;;;23.09;54.25;95343.38;5092478;28;20193;-84
2022/07/19 04:50:47;;;;;;;5.22;2.60;;;;;;;22.95;54.23;95324.28;5092170;28;20205;-83
2022/07/19 04:53:14;;;;;;;4.90;2.33;;;;;;;23.08;54.11;95329.53;5092161;28;20182;-83
2022/07/19 04:55:41;;;;;;;5.80;2.08;;;;;;;23.07;54.16;95316.69;5091875;28;20190;-85
2022/07/19 04:58:08;;;;;;;2.70;2.40;;;;;;;23.25;54.29;95343.78;5092238;28;20711;-84
2022/07/19 05:00:35;;;;;;;3.25;1.92;;;;;;;23.32;53.75;95345.63;5092465;28;20189;-84
2022/07/19 05:03:05;;;;;;;2.75;2.05;;;;;;;23.37;53.63;95345.81;5092291;28;20201;-83
2022/07/19 05:05:35;;;;;;;3.47;2.20;;;;;;;23.45;53.40;95358.66;5092904;28;20667;-85
2022/07/19 05:08:02;;;;;;;3.10;2.20;;;;;;;23.50;53.07;95345.81;5093157;28;20190;-86
2022/07/19 05:10:29;;;;;;;3.00;2.25;;;;;;;23.21;52.87;95293.00;5091400;28;20196;-84
2022/07/19 05:12:56;;;;;;;4.82;2.30;;;;;;;23.64;52.70;95349.19;5091554;28;20194;-84
2022/07/19 05:15:28;;;;;;;3.53;2.47;;;;;;;23.03;52.29;95224.97;5091732;28;20186;-85
2022/07/19 05:17:55;;;;;;;4.72;2.10;;;;;;;24.09;54.38;95346.72;5092731;28;20181;-86
2022/07/19 05:20:22;;;;;;;3.35;2.38;;;;;;;23.39;54.75;95174.09;5096476;28;20178;-85
2022/07/19 05:22:50;;;;;;;6.30;2.33;;;;;;;24.96;53.61;95342.75;5097866;28;20193;-85
2022/07/19 05:25:17;;;;;;;4.10;2.15;;;;;;;25.51;52.48;95343.75;5095941;28;20221;-84
2022/07/19 05:27:47;;;;;;;2.67;2.10;;;;;;;26.12;51.54;95346.63;5094060;28;20189;-85
2022/07/19 05:30:17;;;;;;;2.40;2.00;;;;;;;26.27;50.02;95265.78;5093434;28;20192;-85
2022/07/19 05:32:43;;;;;;;2.33;2.13;;;;;;;27.08;48.30;95300.41;5094662;28;20197;-83
2022/07/19 05:35:12;;;;;;;2.35;2.10;;;;;;;27.33;46.88;95247.69;5092346;28;20185;-85
2022/07/19 05:37:39;;;;;;;5.47;2.03;;;;;;;27.74;45.64;95223.94;5099194;28;20272;-88
2022/07/19 05:40:10;;;;;;;2.90;1.85;;;;;;;28.76;44.72;95319.84;5102064;28;20200;-87
2022/07/19 05:42:37;;;;;;;3.47;2.22;;;;;;;29.16;44.22;95330.28;5104141;28;20190;-89
2022/07/19 05:45:04;;;;;;;2.78;2.20;;;;;;;29.00;43.48;95258.13;5103728;28;20692;-88
2022/07/19 05:47:31;;;;;;;2.40;1.88;;;;;;;29.38;42.61;95267.13;5103878;28;20233;-88
2022/07/19 05:49:59;;;;;;;5.00;2.08;;;;;;;30.24;42.21;95354.59;5088301;28;20205;-88
2022/07/19 05:52:27;;;;;;;2.50;1.90;;;;;;;30.54;41.23;95357.88;5102033;28;20278;-89
2022/07/19 05:54:54;;;;;;;3.05;2.22;;;;;;;30.82;40.86;95357.66;5102907;28;20189;-84
2022/07/19 05:57:23;;;;;;;4.03;2.30;;;;;;;30.26;40.11;95226.88;5095521;28;20656;-88
2022/07/19 05:59:50;;;;;;;7.13;1.92;;;;;;;31.32;39.90;95353.16;5092323;28;20190;-84
2022/07/19 06:02:18;;;;;;;3.00;1.90;;;;;;;31.54;39.06;95350.41;5093575;28;20210;-85
2022/07/19 06:04:45;;;;;;;4.10;2.20;;;;;;;31.55;38.63;95317.63;5093212;28;20190;-85
2022/07/19 06:07:12;;;;;;;3.90;2.58;;;;;;;31.76;37.67;95350.28;5096101;28;20210;-87
2022/07/19 06:09:39;;;;;;;3.33;2.50;;;;;;;31.85;37.67;95354.09;5101779;28;20189;-86
2022/07/19 06:12:06;;;;;;;4.07;2.22;;;;;;;31.66;37.75;95312.16;5093847;28;20188;-88
2022/07/19 06:14:34;;;;;;;4.15;2.45;;;;;;;32.05;37.58;95358.72;5096398;28;20194;-86
2022/07/19 06:17:01;;;;;;;4.00;2.00;;;;;;;31.99;37.22;95336.69;5097876;28;20649;-85
2022/07/19 06:19:28;;;;;;;4.78;2.20;;;;;;;32.02;37.00;95322.97;5099899;28;20189;-87
2022/07/19 06:21:55;;;;;;;9.70;2.10;;;;;;;32.28;36.61;95347.69;5093855;28;20189;-85
2022/07/19 06:24:22;;;;;;;7.10;2.58;;;;;;;32.38;36.39;95358.34;5090674;28;20196;-86
2022/07/19 06:26:49;;;;;;;2.78;1.90;;;;;;;32.49;36.20;95353.13;5089877;28;20228;-84
2022/07/19 06:29:16;;;;;;;5.63;2.20;;;;;;;32.60;36.30;95350.25;5090430;28;20186;-87
2022/07/19 06:31:45;;;;;;;3.30;2.10;;;;;;;32.37;35.97;95301.13;5089815;28;20197;-86
2022/07/19 06:34:11;;;;;;;3.33;2.05;;;;;;;32.80;35.79;95346.84;5090471;28;20189;-87
2022/07/19 06:36:39;;;;;;;3.67;2.17;;;;;;;32.80;35.48;95328.28;5090835;28;20584;-88
2022/07/19 06:39:06;;;;;;;13.35;2.83;;;;;;;32.66;35.66;95295.41;5089751;28;20673;-85
2022/07/19 06:41:33;;;;;;;5.75;2.60;;;;;;;33.02;35.96;95340.56;5090011;28;20186;-83
2022/07/19 06:44:00;;;;;;;8.43;2.55;;;;;;;32.91;35.70;95316.69;5090593;28;20190;-87
2022/07/19 06:46:27;;;;;;;2.53;2.30;;;;;;;32.89;35.95;95302.88;5090913;28;20766;-88
2022/07/19 06:48:55;;;;;;;2.85;2.45;;;;;;;33.24;35.43;95333.16;5089824;28;20247;-83
2022/07/19 06:51:22;;;;;;;5.22;2.78;;;;;;;33.21;35.55;95313.28;5092658;28;20189;-84
2022/07/19 06:53:49;;;;;;;2.10;2.00;;;;;;;32.24;34.76;95156.00;5091244;28;20200;-85
2022/07/19 06:56:16;;;;;;;3.33;2.50;;;;;;;33.05;34.51;95271.91;5090486;28;20186;-84
2022/07/19 06:58:43;;;;;;;2.67;2.03;;;;;;;33.52;34.42;95339.03;5090780;28;20190;-85
2022/07/19 07:01:12;;;;;;;5.78;2.40;;;;;;;33.59;34.48;95342.97;5091601;28;20557;-85
2022/07/19 07:03:40;;;;;;;6.57;2.40;;;;;;;33.25;34.39;95270.31;5091560;28;20194;-88
2022/07/19 07:06:09;;;;;;;4.70;2.50;;;;;;;33.20;34.15;95287.00;5092634;28;20228;-91
2022/07/19 07:08:36;;;;;;;5.47;2.60;;;;;;;33.60;33.95;95335.84;5094551;28;20691;-86
2022/07/19 07:11:03;;;;;;;3.92;2.20;;;;;;;33.09;34.00;95264.22;5092786;28;20562;-86
2022/07/19 07:13:30;;;;;;;5.85;2.35;;;;;;;32.87;34.49;95214.91;5094751;28;20196;-87
2022/07/19 07:15:56;;;;;;;3.03;2.00;;;;;;;33.15;34.61;95228.69;5097207;28;20196;-87
2022/07/19 07:18:23;;;;;;;2.78;1.80;;;;;;;33.57;34.40;95291.25;5093992;28;20196;-87
2022/07/19 07:20:50;;;;;;;3.83;2.20;;;;;;;33.70;34.19;95296.00;5094751;28;20657;-88
2022/07/19 07:23:22;;;;;;;2.50;2.10;;;;;;;33.14;32.94;95206.69;5102316;28;20190;-88
2022/07/19 07:25:49;;;;;;;5.28;2.67;;;;;;;33.90;33.01;95325.16;5101272;28;20221;-85
2022/07/19 07:28:16;;;;;;;3.58;2.47;;;;;;;33.93;33.05;95324.59;5098598;28;20190;-85
2022/07/19 07:30:43;;;;;;;3.33;2.33;;;;;;;33.98;33.19;95331.78;5095611;28;20182;-86
2022/07/19 07:33:10;;;;;;;6.55;2.72;;;;;;;34.01;32.81;95327.81;5096089;28;20178;-82
2022/07/19 07:35:37;;;;;;;4.50;2.40;;;;;;;34.05;32.13;95337.63;5102153;28;20190;-87
2022/07/19 07:38:04;;;;;;;4.93;2.50;;;;;;;33.31;32.75;95202.97;5109044;28;20216;-88
2022/07/19 07:40:33;;;;;;;3.53;2.38;;;;;;;34.12;32.24;95316.09;5096877;28;20194;-87
2022/07/19 07:43:02;;;;;;;3.88;2.05;;;;;;;34.22;32.19;95323.22;5094227;28;20178;-90
2022/07/19 07:45:29;;;;;;;3.05;2.30;;;;;;;33.91;32.00;95265.69;5096013;28;20221;-89
2022/07/19 07:47:57;;;;;;;3.08;2.20;;;;;;;34.35;32.02;95318.13;5092748;28;20840;-86
2022/07/19 07:50:24;;;;;;;2.25;2.10;;;;;;;33.93;31.00;95255.59;5094232;28;20186;-89
2022/07/19 07:52:51;;;;;;;3.40;2.28;;;;;;;34.12;30.62;95281.59;5093953;28;20228;-88
2022/07/19 07:55:19;;;;;;;3.97;2.03;;;;;;;34.40;30.65;95322.63;5093637;28;20201;-88
2022/07/19 07:57:48;;;;;;;2.65;2.45;;;;;;;33.37;30.61;95162.09;5094806;28;20202;-89
2022/07/19 08:00:15;;;;;;;2.13;1.92;;;;;;;33.56;30.24;95200.28;5097697;28;20219;-88
2022/07/19 08:02:43;;;;;;;2.25;2.05;;;;;;;34.35;29.35;95315.47;5095098;28;20193;-88
2022/07/19 08:05:11;;;;;;;3.58;2.00;;;;;;;34.17;29.65;95306.25;5098360;28;20293;-89
2022/07/19 08:07:39;;;;;;;2.00;1.90;;;;;;;34.21;30.24;95317.13;5093697;28;20233;-91
2022/07/19 08:10:09;;;;;;;6.85;2.35;;;;;;;34.07;30.34;95301.00;5093219;28;20189;-91
2022/07/19 08:12:35;;;;;;;19.65;3.08;;;;;;;33.82;31.27;95272.63;5093321;28;20198;-92
2022/07/19 08:15:05;;;;;;;2.85;1.90;;;;;;;33.93;30.36;95306.03;5094446;28;20691;-92
2022/07/19 08:17:32;;;;;;;7.65;2.30;;;;;;;33.65;30.95;95283.56;5093438;28;20200;-90
2022/07/19 08:20:02;;;;;;;3.47;1.83;;;;;;;33.60;30.45;95323.38;5096670;28;20584;-89
2022/07/19 08:22:29;;;;;;;7.47;2.35;;;;;;;32.47;29.45;95272.09;5092047;28;20189;-83
2022/07/19 08:24:57;;;;;;;5.47;2.45;;;;;;;32.02;30.19;95222.41;5092858;28;20253;-88
2022/07/19 08:27:23;;;;;;;3.20;2.20;;;;;;;32.38;30.42;95315.97;5092245;28;20261;-85
2022/07/19 08:29:50;;;;;;;4.25;2.10;;;;;;;31.37;31.20;95194.56;5091821;28;20197;-84
2022/07/19 08:32:19;;;;;;;4.32;2.70;;;;;;;31.76;31.65;95292.91;5092012;28;20853;-86
2022/07/19 08:34:46;;;;;;;6.72;2.20;;;;;;;31.69;31.99;95310.81;5093859;28;20185;-84
2022/07/19 08:37:13;;;;;;;2.70;2.10;;;;;;;31.59;32.13;95316.06;5093878;28;20189;-85
2022/07/19 08:39:41;;;;;;;2.10;1.90;;;;;;;30.51;32.20;95163.78;5097567;28;20238;-89
2022/07/19 08:42:09;;;;;;;3.28;2.40;;;;;;;30.69;32.67;95213.56;5094736;28;20284;-83
2022/07/19 08:44:39;;;;;;;2.15;1.95;;;;;;;31.16;30.94;95302.75;5071762;28;20255;-86
2022/07/19 08:47:06;;;;;;;4.10;2.13;;;;;;;30.46;31.53;95233.16;5072626;28;20234;-84
2022/07/19 08:49:34;;;;;;;6.25;1.90;;;;;;;30.85;31.69;95295.63;5071300;28;20194;-86
2022/07/19 08:52:02;;;;;;;3.75;2.38;;;;;;;30.52;31.64;95299.22;5071417;28;20191;-83
2022/07/19 08:54:29;;;;;;;4.63;2.15;;;;;;;29.32;31.67;95123.19;5071056;28;20192;-87
2022/07/19 08:59:42;;;;;;;4.45;1.95;;;;;;;30.43;31.56;95301.50;5071816;28;20214;-90
2022/07/19 09:02:09;;;;;;;10.45;2.22;;;;;;;29.83;31.45;95210.00;5073152;28;20194;-91
2022/07/19 09:04:37;;;;;;;4.60;2.25;;;;;;;28.95;31.45;95104.47;5075738;28;20202;-90
2022/07/19 09:07:05;;;;;;;2.75;2.10;;;;;;;29.69;31.81;95260.47;5076705;28;20221;-89
2022/07/19 09:09:36;;;;;;;3.25;2.33;;;;;;;28.60;33.55;95104.75;5072727;28;20194;-89
2022/07/19 09:12:06;;;;;;;3.15;2.20;;;;;;;29.85;32.14;95303.66;5072158;28;20190;-88
2022/07/19 09:14:35;;;;;;;7.53;2.22;;;;;;;29.37;32.82;95302.44;5072489;28;20198;-90
2022/07/19 09:17:06;;;;;;;2.33;2.13;;;;;;;29.38;33.19;95290.06;5071385;28;20273;-89
2022/07/19 09:19:34;;;;;;;5.78;2.22;;;;;;;28.14;32.86;95096.88;5071931;28;20194;-89
2022/07/19 09:22:05;;;;;;;4.10;2.20;;;;;;;29.34;33.46;95275.75;5071851;28;20206;-85
2022/07/19 09:24:34;;;;;;;2.80;2.05;;;;;;;29.46;32.39;95300.19;5070539;28;20179;-84
2022/07/19 09:27:04;;;;;;;4.57;2.10;;;;;;;29.36;32.74;95271.03;5070871;28;20249;-85
2022/07/19 09:29:33;;;;;;;4.68;2.13;;;;;;;29.43;32.17;95298.81;5070948;28;20194;-87
2022/07/19 09:32:08;;;;;;;2.15;1.95;;;;;;;29.46;32.61;95282.53;5070819;28;20187;-88
2022/07/19 09:34:36;;;;;;;5.13;2.35;;;;;;;29.50;32.57;95290.75;5070557;28;20205;-88
2022/07/19 09:37:17;;;;;;;5.72;1.90;;;;;;;29.49;32.56;95282.06;5070886;28;20190;-87
2022/07/19 09:39:46;;;;;;;4.68;1.92;;;;;;;29.55;31.74;95282.13;5073195;28;20197;-87
2022/07/19 09:42:15;;;;;;;2.33;1.98;;;;;;;28.26;31.86;95079.19;5071718;28;20193;-88
2022/07/19 09:44:42;;;;;;;5.50;1.85;;;;;;;29.18;31.96;95214.91;5073037;28;20195;-86
2022/07/19 09:47:09;;;;;;;1.92;1.80;;;;;;;29.45;32.05;95269.59;5069767;28;20252;-90
2022/07/19 09:49:36;;;;;;;2.80;2.60;;;;;;;29.44;32.39;95266.16;5072331;28;20228;-90
2022/07/19 09:52:03;;;;;;;2.55;2.35;;;;;;;28.95;31.94;95184.28;5072834;28;20209;-91
2022/07/19 09:54:33;;;;;;;4.78;2.15;;;;;;;29.41;32.56;95263.22;5079753;28;20289;-91
2022/07/19 09:57:02;;;;;;;5.15;2.10;;;;;;;29.43;32.91;95284.84;5079930;28;20634;-87
2022/07/19 09:59:29;;;;;;;4.47;2.22;;;;;;;28.92;32.67;95191.84;5070848;28;20271;-91
2022/07/19 10:01:57;;;;;;;2.58;2.20;;;;;;;29.45;32.66;95269.59;5083731;28;20221;-90
2022/07/19 10:04:27;;;;;;;2.50;2.20;;;;;;;28.81;33.12;95169.03;5075366;28;20186;-89
2022/07/19 10:06:54;;;;;;;5.15;2.53;;;;;;;29.47;33.67;95273.59;5072261;28;20210;-90
2022/07/19 10:09:24;;;;;;;2.05;1.90;;;;;;;28.54;33.76;95108.31;5072796;28;20556;-93
2022/07/19 10:11:54;;;;;;;2.50;2.22;;;;;;;28.53;33.37;95112.78;5071903;28;20202;-84
2022/07/19 10:14:21;;;;;;;2.53;1.60;;;;;;;29.43;33.08;95263.78;5070383;28;20178;-89
2022/07/19 10:17:13;;;;;;;3.03;2.00;;;;;;;28.01;33.58;95042.75;5070678;28;20191;-87
2022/07/19 10:19:42;;;;;;;6.03;1.90;;;;;;;29.43;33.23;95253.22;5072546;28;20186;-87
2022/07/19 10:22:13;;;;;;;2.92;1.60;;;;;;;29.25;33.12;95228.72;5077594;28;20200;-88
2022/07/19 10:24:49;;;;;;;4.78;1.85;;;;;;;29.51;33.39;95258.09;5077016;28;20638;-87
2022/07/19 10:27:19;;;;;;;2.30;2.10;;;;;;;29.49;33.03;95258.34;5073762;28;20221;-84
2022/07/19 10:29:46;;;;;;;2.22;2.08;;;;;;;28.77;33.50;95154.75;5070809;28;20195;-86
2022/07/19 10:32:14;;;;;;;2.22;1.98;;;;;;;29.17;33.15;95215.16;5071947;28;20188;-84
2022/07/19 10:34:42;;;;;;;2.20;2.10;;;;;;;28.58;33.24;95119.97;5077687;28;20630;-85
2022/07/19 10:37:10;;;;;;;2.20;2.00;;;;;;;28.78;33.29;95145.81;5078209;28;20186;-87
2022/07/19 10:39:38;;;;;;;6.45;2.83;;;;;;;28.85;33.50;95170.97;5071391;28;20207;-89
2022/07/19 10:42:14;;;;;;;2.58;2.20;;;;;;;28.83;32.72;95154.59;5069509;28;20251;-87
2022/07/19 10:45:12;;;;;;;5.22;2.38;;;;;;;29.42;32.86;95236.63;5069797;28;20183;-84
2022/07/19 10:48:02;;;;;;;2.17;1.90;;;;;;;29.30;33.61;95240.38;5049835;28;20215;-85
2022/07/19 10:50:58;;;;;;;4.18;2.55;;;;;;;29.23;33.29;95238.72;5049432;28;20234;-86
2022/07/19 10:54:02;;;;;;;2.53;2.10;;;;;;;28.98;33.47;95204.91;5049275;28;20654;-85
2022/07/19 10:56:41;;;;;;;3.58;2.25;;;;;;;29.09;33.41;95237.44;5049718;28;20930;-86
2022/07/19 10:59:10;;;;;;;2.72;1.98;;;;;;;28.91;33.81;95222.66;5053434;28;20260;-85
2022/07/19 11:01:55;;;;;;;3.72;2.30;;;;;;;29.00;34.18;95233.63;5053332;28;20190;-85
2022/07/19 11:04:25;;;;;;;4.28;2.00;;;;;;;29.02;33.86;95230.72;5053515;28;20183;-86
2022/07/19 11:07:09;;;;;;;3.28;2.10;;;;;;;29.05;33.77;95228.41;5052796;28;20206;-84
2022/07/19 11:09:41;;;;;;;3.92;2.00;;;;;;;28.13;33.92;95068.19;5053109;28;20195;-86
2022/07/19 11:12:24;;;;;;;2.65;2.05;;;;;;;29.04;33.31;95228.66;5053158;28;20210;-87
2022/07/19 11:14:51;;;;;;;4.88;2.20;;;;;;;28.56;34.31;95157.06;5052015;28;20203;-87
2022/07/19 11:17:19;;;;;;;4.63;2.35;;;;;;;28.69;33.97;95172.53;5052038;28;20210;-87
2022/07/19 11:20:04;;;;;;;2.20;2.00;;;;;;;28.98;34.17;95225.16;5050174;28;20199;-87
2022/07/19 11:22:41;;;;;;;4.40;1.83;;;;;;;27.92;34.28;95064.44;5052897;28;20187;-86
2022/07/19 11:25:09;;;;;;;5.03;2.20;;;;;;;28.50;34.35;95150.94;5052031;28;20202;-85
2022/07/19 11:27:37;;;;;;;2.20;2.03;;;;;;;28.92;34.00;95208.44;5055399;28;20741;-85
2022/07/19 11:30:07;;;;;;;5.68;2.15;;;;;;;28.94;34.61;95222.19;5061586;28;20186;-87
2022/07/19 11:32:35;;;;;;;2.20;2.00;;;;;;;28.13;34.08;95090.03;5062713;28;20191;-86
2022/07/19 11:35:04;;;;;;;2.50;2.10;;;;;;;28.95;34.55;95207.97;5067321;28;20241;-86
2022/07/19 11:37:34;;;;;;;3.72;2.38;;;;;;;28.97;34.31;95207.75;5072290;28;20218;-88
2022/07/19 11:40:01;;;;;;;2.50;2.30;;;;;;;27.64;34.46;95005.56;5075972;28;20178;-89
2022/07/19 11:42:33;;;;;;;12.05;2.30;;;;;;;28.97;34.75;95207.75;5077113;28;20195;-87
2022/07/19 11:45:08;;;;;;;2.63;2.42;;;;;;;28.08;33.88;95065.50;5068603;28;20275;-87